sensor_id;sensor_type;location;lat;lon;timestamp;pressure;altitude;pressure_sealevel;temperature;humidity
3968;BME280;9221;42.646;23.380;2023-03-01T00:01:48;95039.31;;;6.94;95.40
3968;BME280;9221;42.646;23.380;2023-03-01T00:04:14;94954.06;;;6.55;95.27
3968;BME280;9221;42.646;23.380;2023-03-01T00:06:39;94977.44;;;6.69;95.82
3968;BME280;9221;42.646;23.380;2023-03-01T00:09:05;95027.59;;;6.65;95.74
3968;BME280;9221;42.646;23.380;2023-03-01T00:11:32;94990.69;;;7.13;95.27
3968;BME280;9221;42.646;23.380;2023-03-01T00:14:00;94923.38;;;6.80;94.99
3968;BME280;9221;42.646;23.380;2023-03-01T00:16:34;94985.81;;;7.20;94.08
3968;BME280;9221;42.646;23.380;2023-03-01T00:18:59;94933.84;;;6.80;94.08
3968;BME280;9221;42.646;23.380;2023-03-01T00:21:25;95068.06;;;7.19;94.15
3968;BME280;9221;42.646;23.380;2023-03-01T00:23:52;94910.16;;;6.70;94.65
3968;BME280;9221;42.646;23.380;2023-03-01T00:26:19;94907.41;;;6.71;94.15
3968;BME280;9221;42.646;23.380;2023-03-01T00:28:45;94995.84;;;7.26;94.29
3968;BME280;9221;42.646;23.380;2023-03-01T00:31:16;94914.91;;;6.76;94.25
3968;BME280;9221;42.646;23.380;2023-03-01T00:33:43;94932.63;;;6.61;94.71
3968;BME280;9221;42.646;23.380;2023-03-01T00:36:11;94945.75;;;6.95;94.82
3968;BME280;9221;42.646;23.380;2023-03-01T00:38:39;94831.09;;;5.95;95.06
3968;BME280;9221;42.646;23.380;2023-03-01T00:41:07;94901.91;;;6.63;95.12
3968;BME280;9221;42.646;23.380;2023-03-01T00:43:33;94899.75;;;6.68;94.83
3968;BME280;9221;42.646;23.380;2023-03-01T00:46:07;94943.88;;;6.97;95.21
3968;BME280;9221;42.646;23.380;2023-03-01T00:48:33;94955.75;;;6.78;94.20
3968;BME280;9221;42.646;23.380;2023-03-01T00:51:12;94815.44;;;6.18;94.28
3968;BME280;9221;42.646;23.380;2023-03-01T00:53:39;94969.13;;;7.09;93.53
3968;BME280;9221;42.646;23.380;2023-03-01T00:56:06;94976.97;;;6.98;94.31
3968;BME280;9221;42.646;23.380;2023-03-01T00:58:32;94897.88;;;6.59;94.41
3968;BME280;9221;42.646;23.380;2023-03-01T01:00:57;94970.09;;;6.97;94.65
3968;BME280;9221;42.646;23.380;2023-03-01T01:03:23;94985.81;;;6.97;94.79
3968;BME280;9221;42.646;23.380;2023-03-01T01:05:51;95014.88;;;6.83;95.11
3968;BME280;9221;42.646;23.380;2023-03-01T01:08:17;94917.13;;;6.35;95.42
3968;BME280;9221;42.646;23.380;2023-03-01T01:10:44;94904.00;;;6.35;95.86
3968;BME280;9221;42.646;23.380;2023-03-01T01:13:10;94932.88;;;6.58;96.11
3968;BME280;9221;42.646;23.380;2023-03-01T01:15:35;94969.06;;;6.41;95.63
3968;BME280;9221;42.646;23.380;2023-03-01T01:18:01;94892.59;;;6.36;95.42
3968;BME280;9221;42.646;23.380;2023-03-01T01:20:27;94913.09;;;6.42;95.31
3968;BME280;9221;42.646;23.380;2023-03-01T01:22:52;94891.53;;;6.39;95.27
3968;BME280;9221;42.646;23.380;2023-03-01T01:25:18;94903.56;;;6.53;95.49
3968;BME280;9221;42.646;23.380;2023-03-01T01:27:44;94968.38;;;6.73;94.66
3968;BME280;9221;42.646;23.380;2023-03-01T01:30:10;94943.97;;;6.73;94.74
3968;BME280;9221;42.646;23.380;2023-03-01T01:32:35;94946.47;;;6.63;95.00
3968;BME280;9221;42.646;23.380;2023-03-01T01:35:01;94946.94;;;6.68;94.77
3968;BME280;9221;42.646;23.380;2023-03-01T01:37:26;94850.59;;;5.91;94.84
3968;BME280;9221;42.646;23.380;2023-03-01T01:39:57;95036.22;;;6.42;95.76
3968;BME280;9221;42.646;23.380;2023-03-01T01:42:23;94952.66;;;6.51;95.59
3968;BME280;9221;42.646;23.380;2023-03-01T01:45:25;94965.28;;;6.68;96.03
3968;BME280;9221;42.646;23.380;2023-03-01T01:47:52;95001.25;;;6.66;94.42
3968;BME280;9221;42.646;23.380;2023-03-01T01:50:20;94886.16;;;6.29;94.31
3968;BME280;9221;42.646;23.380;2023-03-01T01:52:47;94920.22;;;6.52;94.33
3968;BME280;9221;42.646;23.380;2023-03-01T01:55:18;94960.06;;;6.91;94.07
3968;BME280;9221;42.646;23.380;2023-03-01T01:57:51;94903.56;;;6.53;93.18
3968;BME280;9221;42.646;23.380;2023-03-01T02:00:25;94984.72;;;6.77;93.31
3968;BME280;9221;42.646;23.380;2023-03-01T02:03:07;94949.09;;;6.74;92.93
3968;BME280;9221;42.646;23.380;2023-03-01T02:08:27;94947.91;;;6.90;92.28
3968;BME280;9221;42.646;23.380;2023-03-01T02:10:54;94926.94;;;6.78;91.65
3968;BME280;9221;42.646;23.380;2023-03-01T02:13:20;94820.44;;;6.21;90.88
3968;BME280;9221;42.646;23.380;2023-03-01T02:15:46;94922.75;;;6.87;90.97
3968;BME280;9221;42.646;23.380;2023-03-01T02:18:17;94882.84;;;6.61;91.03
3968;BME280;9221;42.646;23.380;2023-03-01T02:23:31;94973.63;;;6.73;91.30
3968;BME280;9221;42.646;23.380;2023-03-01T02:26:15;94833.38;;;6.00;91.66
3968;BME280;9221;42.646;23.380;2023-03-01T02:28:44;94897.38;;;6.42;92.19
3968;BME280;9221;42.646;23.380;2023-03-01T02:31:14;94931.13;;;6.70;91.75
3968;BME280;9221;42.646;23.380;2023-03-01T02:34:00;95030.09;;;6.66;91.79
3968;BME280;9221;42.646;23.380;2023-03-01T02:36:31;94948.97;;;6.87;92.11
3968;BME280;9221;42.646;23.380;2023-03-01T02:39:02;94892.16;;;6.42;92.14
3968;BME280;9221;42.646;23.380;2023-03-01T02:41:30;94893.78;;;6.43;91.78
3968;BME280;9221;42.646;23.380;2023-03-01T02:43:57;94937.63;;;6.64;92.21
3968;BME280;9221;42.646;23.380;2023-03-01T02:46:25;94940.38;;;6.51;92.60
3968;BME280;9221;42.646;23.380;2023-03-01T02:48:57;94833.91;;;5.81;93.37
3968;BME280;9221;42.646;23.380;2023-03-01T02:56:46;94950.72;;;6.53;93.91
3968;BME280;9221;42.646;23.380;2023-03-01T02:59:18;94903.19;;;6.46;93.07
3968;BME280;9221;42.646;23.380;2023-03-01T03:01:44;94940.81;;;6.34;93.06
3968;BME280;9221;42.646;23.380;2023-03-01T03:04:13;94888.03;;;6.04;94.17
3968;BME280;9221;42.646;23.380;2023-03-01T03:06:43;94920.47;;;6.37;94.30
3968;BME280;9221;42.646;23.380;2023-03-01T03:09:09;94954.66;;;6.58;94.16
3968;BME280;9221;42.646;23.380;2023-03-01T03:11:34;94985.34;;;6.45;93.36
3968;BME280;9221;42.646;23.380;2023-03-01T03:14:02;94941.94;;;6.76;93.73
3968;BME280;9221;42.646;23.380;2023-03-01T03:16:28;94983.16;;;6.63;93.02
3968;BME280;9221;42.646;23.380;2023-03-01T03:18:55;94986.78;;;6.49;93.60
3968;BME280;9221;42.646;23.380;2023-03-01T03:21:20;94865.53;;;5.78;94.81
3968;BME280;9221;42.646;23.380;2023-03-01T03:23:45;94870.38;;;5.71;95.37
3968;BME280;9221;42.646;23.380;2023-03-01T03:26:11;94929.66;;;6.07;96.01
3968;BME280;9221;42.646;23.380;2023-03-01T03:28:39;94887.41;;;5.76;95.77
3968;BME280;9221;42.646;23.380;2023-03-01T03:31:06;94902.16;;;5.78;96.08
3968;BME280;9221;42.646;23.380;2023-03-01T03:33:32;94879.09;;;5.47;96.21
3968;BME280;9221;42.646;23.380;2023-03-01T03:35:57;94960.41;;;6.17;95.78
3968;BME280;9221;42.646;23.380;2023-03-01T03:38:23;94903.63;;;5.82;95.92
3968;BME280;9221;42.646;23.380;2023-03-01T03:40:51;94981.38;;;6.17;95.92
3968;BME280;9221;42.646;23.380;2023-03-01T03:43:36;94961.13;;;6.19;96.05
3968;BME280;9221;42.646;23.380;2023-03-01T03:46:20;94992.63;;;5.93;96.48
3968;BME280;9221;42.646;23.380;2023-03-01T03:49:03;95042.41;;;6.41;95.21
3968;BME280;9221;42.646;23.380;2023-03-01T03:51:29;94905.16;;;6.08;94.05
3968;BME280;9221;42.646;23.380;2023-03-01T03:53:54;94938.28;;;6.21;94.33
3968;BME280;9221;42.646;23.380;2023-03-01T03:56:20;94996.72;;;6.21;94.80
3968;BME280;9221;42.646;23.380;2023-03-01T03:58:45;94946.81;;;6.12;95.38
3968;BME280;9221;42.646;23.380;2023-03-01T04:01:10;94974.47;;;6.27;95.61
3968;BME280;9221;42.646;23.380;2023-03-01T04:03:36;95024.31;;;6.50;95.03
3968;BME280;9221;42.646;23.380;2023-03-01T04:06:02;94921.16;;;6.28;94.11
3968;BME280;9221;42.646;23.380;2023-03-01T04:08:29;94857.19;;;6.08;92.76
3968;BME280;9221;42.646;23.380;2023-03-01T04:11:01;94961.69;;;6.58;93.17
3968;BME280;9221;42.646;23.380;2023-03-01T04:13:47;94971.94;;;6.50;92.86
3968;BME280;9221;42.646;23.380;2023-03-01T04:16:13;94973.38;;;6.54;92.94
3968;BME280;9221;42.646;23.380;2023-03-01T04:18:38;94960.97;;;6.56;93.62
3968;BME280;9221;42.646;23.380;2023-03-01T04:21:04;94900.41;;;6.14;93.04
3968;BME280;9221;42.646;23.380;2023-03-01T04:23:29;94896.03;;;6.25;93.51
3968;BME280;9221;42.646;23.380;2023-03-01T04:25:56;95023.66;;;6.70;92.90
3968;BME280;9221;42.646;23.380;2023-03-01T04:30:57;94967.44;;;6.86;91.87
3968;BME280;9221;42.646;23.380;2023-03-01T04:33:24;94918.19;;;6.33;92.11
3968;BME280;9221;42.646;23.380;2023-03-01T04:35:50;94925.50;;;6.05;93.20
3968;BME280;9221;42.646;23.380;2023-03-01T04:38:17;94928.94;;;6.05;93.89
3968;BME280;9221;42.646;23.380;2023-03-01T04:40:42;94915.09;;;5.92;94.06
3968;BME280;9221;42.646;23.380;2023-03-01T04:43:09;94901.25;;;5.90;95.03
3968;BME280;9221;42.646;23.380;2023-03-01T04:45:34;94943.69;;;6.06;94.78
3968;BME280;9221;42.646;23.380;2023-03-01T04:48:00;94956.19;;;6.03;95.35
3968;BME280;9221;42.646;23.380;2023-03-01T04:50:26;94904.13;;;5.63;95.82
3968;BME280;9221;42.646;23.380;2023-03-01T04:52:51;94957.41;;;5.86;96.07
3968;BME280;9221;42.646;23.380;2023-03-01T04:55:17;94994.84;;;5.86;96.49
3968;BME280;9221;42.646;23.380;2023-03-01T04:57:43;94899.13;;;5.59;96.17
3968;BME280;9221;42.646;23.380;2023-03-01T05:00:11;94998.59;;;5.95;96.45
3968;BME280;9221;42.646;23.380;2023-03-01T05:02:54;94952.16;;;5.99;96.62
3968;BME280;9221;42.646;23.380;2023-03-01T05:05:33;94898.78;;;5.64;96.57
3968;BME280;9221;42.646;23.380;2023-03-01T05:08:01;94897.03;;;5.65;95.93
3968;BME280;9221;42.646;23.380;2023-03-01T05:10:28;94970.53;;;5.97;96.35
3968;BME280;9221;42.646;23.380;2023-03-01T05:12:55;94966.56;;;5.91;96.85
3968;BME280;9221;42.646;23.380;2023-03-01T05:15:23;94908.94;;;5.69;97.27
3968;BME280;9221;42.646;23.380;2023-03-01T05:17:57;95004.97;;;5.80;96.42
3968;BME280;9221;42.646;23.380;2023-03-01T05:20:27;94878.59;;;5.66;96.53
3968;BME280;9221;42.646;23.380;2023-03-01T05:22:56;94951.13;;;6.24;95.85
3968;BME280;9221;42.646;23.380;2023-03-01T05:25:22;94907.22;;;5.92;95.41
3968;BME280;9221;42.646;23.380;2023-03-01T05:27:47;94913.69;;;5.99;95.15
3968;BME280;9221;42.646;23.380;2023-03-01T05:30:13;94908.03;;;5.81;94.73
3968;BME280;9221;42.646;23.380;2023-03-01T05:32:47;94966.47;;;6.17;95.13
3968;BME280;9221;42.646;23.380;2023-03-01T05:35:15;94963.50;;;6.22;95.10
3968;BME280;9221;42.646;23.380;2023-03-01T05:37:46;94933.34;;;5.81;95.36
3968;BME280;9221;42.646;23.380;2023-03-01T05:40:15;94975.13;;;6.06;95.14
3968;BME280;9221;42.646;23.380;2023-03-01T05:42:49;94931.72;;;5.67;95.34
3968;BME280;9221;42.646;23.380;2023-03-01T05:45:17;94984.16;;;6.02;95.48
3968;BME280;9221;42.646;23.380;2023-03-01T05:47:44;94920.25;;;5.81;95.24
3968;BME280;9221;42.646;23.380;2023-03-01T05:50:22;94918.97;;;5.86;95.25
3968;BME280;9221;42.646;23.380;2023-03-01T05:52:49;94954.19;;;6.06;94.76
3968;BME280;9221;42.646;23.380;2023-03-01T05:55:18;94934.34;;;5.91;94.60
3968;BME280;9221;42.646;23.380;2023-03-01T05:57:44;94922.44;;;5.87;94.80
3968;BME280;9221;42.646;23.380;2023-03-01T06:00:10;94974.84;;;6.22;94.52
3968;BME280;9221;42.646;23.380;2023-03-01T06:02:37;94880.03;;;5.70;94.45
3968;BME280;9221;42.646;23.380;2023-03-01T06:05:04;94995.47;;;6.38;94.10
3968;BME280;9221;42.646;23.380;2023-03-01T06:07:30;95031.66;;;6.33;93.96
3968;BME280;9221;42.646;23.380;2023-03-01T06:09:55;94990.06;;;6.29;94.25
3968;BME280;9221;42.646;23.380;2023-03-01T06:12:20;95062.34;;;6.31;94.26
3968;BME280;9221;42.646;23.380;2023-03-01T06:14:46;95006.41;;;6.32;94.80
3968;BME280;9221;42.646;23.380;2023-03-01T06:17:12;95009.53;;;6.37;94.27
3968;BME280;9221;42.646;23.380;2023-03-01T06:19:38;94943.38;;;6.11;94.02
3968;BME280;9221;42.646;23.380;2023-03-01T06:22:03;94971.41;;;6.33;94.25
3968;BME280;9221;42.646;23.380;2023-03-01T06:24:29;95004.25;;;6.62;93.59
3968;BME280;9221;42.646;23.380;2023-03-01T06:26:54;94999.09;;;6.60;93.92
3968;BME280;9221;42.646;23.380;2023-03-01T06:29:21;94998.41;;;6.69;93.52
3968;BME280;9221;42.646;23.380;2023-03-01T06:31:47;94999.31;;;6.46;93.62
3968;BME280;9221;42.646;23.380;2023-03-01T06:34:13;94953.50;;;6.16;94.17
3968;BME280;9221;42.646;23.380;2023-03-01T06:36:39;94941.72;;;6.21;94.51
3968;BME280;9221;42.646;23.380;2023-03-01T06:39:05;95000.66;;;6.63;94.30
3968;BME280;9221;42.646;23.380;2023-03-01T06:41:31;95008.31;;;6.77;93.85
3968;BME280;9221;42.646;23.380;2023-03-01T06:43:56;95045.84;;;6.89;93.44
3968;BME280;9221;42.646;23.380;2023-03-01T06:46:22;95004.13;;;6.86;92.76
3968;BME280;9221;42.646;23.380;2023-03-01T06:48:47;95009.38;;;6.86;92.42
3968;BME280;9221;42.646;23.380;2023-03-01T06:51:12;95017.03;;;7.00;91.63
3968;BME280;9221;42.646;23.380;2023-03-01T06:53:38;94867.06;;;6.04;91.77
3968;BME280;9221;42.646;23.380;2023-03-01T06:56:03;95008.88;;;6.69;92.08
3968;BME280;9221;42.646;23.380;2023-03-01T06:58:29;95062.97;;;6.70;92.56
3968;BME280;9221;42.646;23.380;2023-03-01T07:00:54;94999.59;;;6.76;92.65
3968;BME280;9221;42.646;23.380;2023-03-01T07:03:20;95014.72;;;6.62;91.72
3968;BME280;9221;42.646;23.380;2023-03-01T07:05:48;95039.44;;;7.04;91.76
3968;BME280;9221;42.646;23.380;2023-03-01T07:08:14;95101.91;;;7.10;90.93
3968;BME280;9221;42.646;23.380;2023-03-01T07:10:39;95003.19;;;6.98;89.87
3968;BME280;9221;42.646;23.380;2023-03-01T07:13:05;95001.53;;;7.20;90.45
3968;BME280;9221;42.646;23.380;2023-03-01T07:15:32;95003.63;;;6.69;90.11
3968;BME280;9221;42.646;23.380;2023-03-01T07:17:58;95008.44;;;6.75;91.60
3968;BME280;9221;42.646;23.380;2023-03-01T07:20:23;94989.47;;;6.60;91.32
3968;BME280;9221;42.646;23.380;2023-03-01T07:22:51;95032.44;;;6.58;92.36
3968;BME280;9221;42.646;23.380;2023-03-01T07:25:17;94890.28;;;6.09;92.46
3968;BME280;9221;42.646;23.380;2023-03-01T07:27:42;94989.16;;;6.99;91.45
3968;BME280;9221;42.646;23.380;2023-03-01T07:30:08;94915.97;;;6.51;90.77
3968;BME280;9221;42.646;23.380;2023-03-01T07:32:34;95004.63;;;7.02;91.33
3968;BME280;9221;42.646;23.380;2023-03-01T07:34:59;95004.88;;;6.99;90.32
3968;BME280;9221;42.646;23.380;2023-03-01T07:37:25;94997.75;;;7.01;90.62
3968;BME280;9221;42.646;23.380;2023-03-01T07:39:50;95002.13;;;7.01;90.27
3968;BME280;9221;42.646;23.380;2023-03-01T07:42:15;94935.81;;;6.42;91.35
3968;BME280;9221;42.646;23.380;2023-03-01T07:44:41;95050.13;;;6.78;91.43
3968;BME280;9221;42.646;23.380;2023-03-01T07:47:06;94998.19;;;6.95;91.10
3968;BME280;9221;42.646;23.380;2023-03-01T07:49:32;94996.66;;;7.15;90.11
3968;BME280;9221;42.646;23.380;2023-03-01T07:51:57;94995.00;;;7.14;90.02
3968;BME280;9221;42.646;23.380;2023-03-01T07:54:22;94984.63;;;7.13;89.74
3968;BME280;9221;42.646;23.380;2023-03-01T07:56:48;94969.34;;;7.06;89.78
3968;BME280;9221;42.646;23.380;2023-03-01T07:59:13;94926.22;;;6.65;90.01
3968;BME280;9221;42.646;23.380;2023-03-01T08:01:39;94988.44;;;7.08;90.63
3968;BME280;9221;42.646;23.380;2023-03-01T08:04:04;94936.47;;;6.80;90.13
3968;BME280;9221;42.646;23.380;2023-03-01T08:06:33;94980.56;;;6.97;90.88
3968;BME280;9221;42.646;23.380;2023-03-01T08:08:58;94991.66;;;7.01;90.07
3968;BME280;9221;42.646;23.380;2023-03-01T08:11:24;94920.72;;;6.68;89.60
3968;BME280;9221;42.646;23.380;2023-03-01T08:13:49;94982.47;;;6.95;90.36
3968;BME280;9221;42.646;23.380;2023-03-01T08:16:15;94919.78;;;6.69;89.25
3968;BME280;9221;42.646;23.380;2023-03-01T08:18:41;94964.47;;;7.13;89.87
3968;BME280;9221;42.646;23.380;2023-03-01T08:21:12;94983.91;;;6.99;88.02
3968;BME280;9221;42.646;23.380;2023-03-01T08:23:38;94917.38;;;6.43;88.08
3968;BME280;9221;42.646;23.380;2023-03-01T08:26:09;94959.13;;;6.92;87.77
3968;BME280;9221;42.646;23.380;2023-03-01T08:28:35;94979.84;;;6.95;88.18
3968;BME280;9221;42.646;23.380;2023-03-01T08:31:01;94927.63;;;6.58;87.68
3968;BME280;9221;42.646;23.380;2023-03-01T08:33:27;94953.84;;;6.81;88.42
3968;BME280;9221;42.646;23.380;2023-03-01T08:35:52;94966.72;;;7.06;87.10
3968;BME280;9221;42.646;23.380;2023-03-01T08:38:26;94997.00;;;6.99;87.21
3968;BME280;9221;42.646;23.380;2023-03-01T08:40:51;94927.53;;;6.93;86.31
3968;BME280;9221;42.646;23.380;2023-03-01T08:43:17;94915.47;;;7.02;85.95
3968;BME280;9221;42.646;23.380;2023-03-01T08:45:42;94998.19;;;7.40;85.30
3968;BME280;9221;42.646;23.380;2023-03-01T08:48:08;94939.44;;;6.98;85.82
3968;BME280;9221;42.646;23.380;2023-03-01T08:50:33;94945.53;;;6.75;85.91
3968;BME280;9221;42.646;23.380;2023-03-01T08:52:58;94922.53;;;6.68;85.93
3968;BME280;9221;42.646;23.380;2023-03-01T08:55:24;95014.16;;;7.15;85.59
3968;BME280;9221;42.646;23.380;2023-03-01T08:57:49;94983.66;;;7.25;86.15
3968;BME280;9221;42.646;23.380;2023-03-01T09:00:15;94962.06;;;7.21;85.10
3968;BME280;9221;42.646;23.380;2023-03-01T09:02:40;94864.88;;;6.56;85.21
3968;BME280;9221;42.646;23.380;2023-03-01T09:05:06;94878.34;;;6.63;85.38
3968;BME280;9221;42.646;23.380;2023-03-01T09:07:31;94924.19;;;7.03;84.99
3968;BME280;9221;42.646;23.380;2023-03-01T09:09:57;94988.75;;;7.60;85.06
3968;BME280;9221;42.646;23.380;2023-03-01T09:12:22;94973.34;;;7.67;84.04
3968;BME280;9221;42.646;23.380;2023-03-01T09:14:48;94965.84;;;7.51;83.89
3968;BME280;9221;42.646;23.380;2023-03-01T09:17:13;94916.53;;;7.22;83.23
3968;BME280;9221;42.646;23.380;2023-03-01T09:19:39;94931.66;;;7.41;84.04
3968;BME280;9221;42.646;23.380;2023-03-01T09:22:04;94938.81;;;7.28;84.46
3968;BME280;9221;42.646;23.380;2023-03-01T09:24:30;94968.56;;;7.61;84.16
3968;BME280;9221;42.646;23.380;2023-03-01T09:26:56;95004.00;;;7.67;83.69
3968;BME280;9221;42.646;23.380;2023-03-01T09:29:22;94965.81;;;7.62;84.60
3968;BME280;9221;42.646;23.380;2023-03-01T09:31:47;94915.56;;;7.35;83.70
3968;BME280;9221;42.646;23.380;2023-03-01T09:34:13;94924.47;;;7.43;83.70
3968;BME280;9221;42.646;23.380;2023-03-01T09:36:41;94930.81;;;7.41;83.61
3968;BME280;9221;42.646;23.380;2023-03-01T09:39:07;95003.91;;;7.57;84.27
3968;BME280;9221;42.646;23.380;2023-03-01T09:44:32;94997.56;;;7.59;84.45
3968;BME280;9221;42.646;23.380;2023-03-01T09:47:00;94850.66;;;7.04;84.34
3968;BME280;9221;42.646;23.380;2023-03-01T09:49:33;94953.03;;;7.81;82.94
3968;BME280;9221;42.646;23.380;2023-03-01T09:54:46;94954.66;;;7.93;82.97
3968;BME280;9221;42.646;23.380;2023-03-01T10:02:52;94903.94;;;7.60;82.87
3968;BME280;9221;42.646;23.380;2023-03-01T10:10:42;94876.38;;;7.66;83.06
3968;BME280;9221;42.646;23.380;2023-03-01T10:13:15;94897.94;;;7.69;82.45
3968;BME280;9221;42.646;23.380;2023-03-01T10:15:53;94934.69;;;8.02;82.85
3968;BME280;9221;42.646;23.380;2023-03-01T10:18:28;94886.53;;;7.59;82.53
3968;BME280;9221;42.646;23.380;2023-03-01T10:21:07;94881.59;;;7.33;83.31
3968;BME280;9221;42.646;23.380;2023-03-01T10:23:37;94919.25;;;7.32;84.12
3968;BME280;9221;42.646;23.380;2023-03-01T10:26:33;94926.22;;;7.98;83.52
3968;BME280;9221;42.646;23.380;2023-03-01T10:29:12;94861.91;;;7.71;82.77
3968;BME280;9221;42.646;23.380;2023-03-01T10:31:49;94858.25;;;7.84;82.50
3968;BME280;9221;42.646;23.380;2023-03-01T10:34:32;94946.22;;;8.10;82.54
3968;BME280;9221;42.646;23.380;2023-03-01T10:37:19;94914.69;;;8.10;82.21
3968;BME280;9221;42.646;23.380;2023-03-01T10:40:03;94873.75;;;7.87;82.30
3968;BME280;9221;42.646;23.380;2023-03-01T10:42:48;94955.19;;;8.08;81.64
3968;BME280;9221;42.646;23.380;2023-03-01T10:45:31;94898.75;;;8.23;81.11
3968;BME280;9221;42.646;23.380;2023-03-01T10:48:26;94840.06;;;7.92;81.91
3968;BME280;9221;42.646;23.380;2023-03-01T10:53:28;94903.63;;;8.28;80.60
3968;BME280;9221;42.646;23.380;2023-03-01T10:58:29;94886.34;;;8.46;79.87
3968;BME280;9221;42.646;23.380;2023-03-01T11:01:23;94849.66;;;8.24;79.55
3968;BME280;9221;42.646;23.380;2023-03-01T11:06:30;94868.75;;;8.68;79.63
3968;BME280;9221;42.646;23.380;2023-03-01T11:08:56;94834.97;;;8.42;79.19
3968;BME280;9221;42.646;23.380;2023-03-01T11:11:39;94908.84;;;8.39;80.32
3968;BME280;9221;42.646;23.380;2023-03-01T11:14:21;94896.06;;;8.13;81.86
3968;BME280;9221;42.646;23.380;2023-03-01T11:16:49;94855.56;;;7.95;81.89
3968;BME280;9221;42.646;23.380;2023-03-01T11:19:23;94833.81;;;8.04;81.06
3968;BME280;9221;42.646;23.380;2023-03-01T11:21:55;94935.16;;;8.28;81.01
3968;BME280;9221;42.646;23.380;2023-03-01T11:24:51;94900.34;;;8.14;81.84
3968;BME280;9221;42.646;23.380;2023-03-01T11:27:22;94884.28;;;8.08;82.50
3968;BME280;9221;42.646;23.380;2023-03-01T11:33:01;94902.34;;;8.43;81.44
3968;BME280;9221;42.646;23.380;2023-03-01T11:35:29;94805.41;;;7.56;81.67
3968;BME280;9221;42.646;23.380;2023-03-01T11:40:34;94887.72;;;8.29;82.93
3968;BME280;9221;42.646;23.380;2023-03-01T11:50:58;94873.06;;;8.27;82.62
3968;BME280;9221;42.646;23.380;2023-03-01T11:56:31;94863.38;;;8.06;82.40
3968;BME280;9221;42.646;23.380;2023-03-01T12:06:52;94866.28;;;8.45;81.47
3968;BME280;9221;42.646;23.380;2023-03-01T12:12:34;94858.31;;;8.36;82.01
3968;BME280;9221;42.646;23.380;2023-03-01T12:17:54;94704.94;;;7.96;80.67
3968;BME280;9221;42.646;23.380;2023-03-01T12:23:43;94865.88;;;9.22;78.52
3968;BME280;9221;42.646;23.380;2023-03-01T12:32:06;94833.16;;;9.05;78.20
3968;BME280;9221;42.646;23.380;2023-03-01T12:34:42;94858.13;;;9.30;77.78
3968;BME280;9221;42.646;23.380;2023-03-01T12:48:08;94837.72;;;8.62;79.96
3968;BME280;9221;42.646;23.380;2023-03-01T12:50:52;94829.16;;;8.60;80.15
3968;BME280;9221;42.646;23.380;2023-03-01T12:53:41;94828.88;;;8.63;79.74
3968;BME280;9221;42.646;23.380;2023-03-01T12:56:12;94777.03;;;8.44;79.44
3968;BME280;9221;42.646;23.380;2023-03-01T12:58:41;94836.28;;;8.79;79.93
3968;BME280;9221;42.646;23.380;2023-03-01T13:18:03;94774.75;;;8.29;80.45
3968;BME280;9221;42.646;23.380;2023-03-01T13:20:34;94818.19;;;8.55;80.16
3968;BME280;9221;42.646;23.380;2023-03-01T13:31:02;94810.31;;;8.55;80.19
3968;BME280;9221;42.646;23.380;2023-03-01T13:35:54;94833.13;;;8.95;79.09
3968;BME280;9221;42.646;23.380;2023-03-01T13:38:46;94842.31;;;8.70;79.73
3968;BME280;9221;42.646;23.380;2023-03-01T13:41:16;94804.59;;;8.50;79.91
3968;BME280;9221;42.646;23.380;2023-03-01T13:43:44;94785.56;;;8.36;79.32
3968;BME280;9221;42.646;23.380;2023-03-01T13:46:16;94794.25;;;8.58;79.38
3968;BME280;9221;42.646;23.380;2023-03-01T13:48:45;94763.06;;;8.43;79.14
3968;BME280;9221;42.646;23.380;2023-03-01T13:51:13;94819.53;;;8.90;79.64
3968;BME280;9221;42.646;23.380;2023-03-01T13:53:45;94780.44;;;8.56;79.82
3968;BME280;9221;42.646;23.380;2023-03-01T13:56:36;94828.66;;;8.86;80.69
3968;BME280;9221;42.646;23.380;2023-03-01T13:59:04;94807.84;;;8.63;80.02
3968;BME280;9221;42.646;23.380;2023-03-01T14:01:34;94810.38;;;8.74;80.68
3968;BME280;9221;42.646;23.380;2023-03-01T14:04:00;94818.56;;;8.81;80.90
3968;BME280;9221;42.646;23.380;2023-03-01T14:06:29;94748.91;;;8.35;80.63
3968;BME280;9221;42.646;23.380;2023-03-01T14:09:10;94808.00;;;8.71;80.27
3968;BME280;9221;42.646;23.380;2023-03-01T14:20:24;94772.69;;;8.33;80.68
3968;BME280;9221;42.646;23.380;2023-03-01T14:22:53;94856.31;;;8.28;81.48
3968;BME280;9221;42.646;23.380;2023-03-01T14:25:34;94861.03;;;8.24;81.46
3968;BME280;9221;42.646;23.380;2023-03-01T14:30:38;94807.09;;;8.20;82.82
3968;BME280;9221;42.646;23.380;2023-03-01T14:35:59;94851.78;;;8.30;83.42
3968;BME280;9221;42.646;23.380;2023-03-01T14:38:41;94815.06;;;8.19;83.87
3968;BME280;9221;42.646;23.380;2023-03-01T14:41:13;94845.19;;;7.72;84.26
3968;BME280;9221;42.646;23.380;2023-03-01T14:43:50;94765.66;;;7.82;84.94
3968;BME280;9221;42.646;23.380;2023-03-01T14:46:37;94819.72;;;8.05;86.10
3968;BME280;9221;42.646;23.380;2023-03-01T14:49:16;94819.72;;;8.05;86.62
3968;BME280;9221;42.646;23.380;2023-03-01T14:51:57;94884.09;;;8.00;86.45
3968;BME280;9221;42.646;23.380;2023-03-01T14:54:42;94807.81;;;8.01;86.66
3968;BME280;9221;42.646;23.380;2023-03-01T14:57:37;94821.72;;;8.23;85.77
3968;BME280;9221;42.646;23.380;2023-03-01T15:00:08;94781.50;;;7.91;86.51
3968;BME280;9221;42.646;23.380;2023-03-01T15:02:34;94809.25;;;8.15;85.54
3968;BME280;9221;42.646;23.380;2023-03-01T15:05:02;94834.28;;;7.98;85.41
3968;BME280;9221;42.646;23.380;2023-03-01T15:07:32;94798.63;;;7.74;85.62
3968;BME280;9221;42.646;23.380;2023-03-01T15:10:00;94796.53;;;7.68;85.65
3968;BME280;9221;42.646;23.380;2023-03-01T15:14:58;94781.91;;;7.54;87.11
3968;BME280;9221;42.646;23.380;2023-03-01T15:17:32;94777.06;;;7.50;86.07
3968;BME280;9221;42.646;23.380;2023-03-01T15:20:00;94805.81;;;7.72;85.93
3968;BME280;9221;42.646;23.380;2023-03-01T15:22:27;94825.34;;;7.79;85.99
3968;BME280;9221;42.646;23.380;2023-03-01T15:24:53;94805.63;;;7.64;86.80
3968;BME280;9221;42.646;23.380;2023-03-01T15:27:22;94796.97;;;7.52;87.09
3968;BME280;9221;42.646;23.380;2023-03-01T15:29:53;94834.09;;;7.36;88.41
3968;BME280;9221;42.646;23.380;2023-03-01T15:32:29;94797.78;;;7.53;87.71
3968;BME280;9221;42.646;23.380;2023-03-01T15:34:57;94778.31;;;7.34;87.03
3968;BME280;9221;42.646;23.380;2023-03-01T15:40:48;94800.56;;;7.72;87.12
3968;BME280;9221;42.646;23.380;2023-03-01T15:43:44;94808.44;;;7.72;87.14
3968;BME280;9221;42.646;23.380;2023-03-01T15:46:31;94778.97;;;7.48;87.36
3968;BME280;9221;42.646;23.380;2023-03-01T15:49:05;94847.84;;;7.61;87.67
3968;BME280;9221;42.646;23.380;2023-03-01T15:51:36;94867.69;;;7.54;87.69